sensor_id;sensor_type;location;lat;lon;timestamp;P1;durP1;ratioP1;P2;durP2;ratioP2
15331;SDS011;7766;51.534;6.722;2023-08-17T00:00:40;3.53;;;1.90;;
15331;SDS011;7766;51.534;6.722;2023-08-17T00:01:41;3.60;;;2.20;;
15331;SDS011;7766;51.534;6.722;2023-08-17T00:02:42;6.80;;;2.40;;
15331;SDS011;7766;51.534;6.722;2023-08-17T00:03:43;6.88;;;2.28;;
15331;SDS011;7766;51.534;6.722;2023-08-17T00:04:44;3.63;;;2.22;;
15331;SDS011;7766;51.534;6.722;2023-08-17T00:05:45;5.07;;;1.93;;
15331;SDS011;7766;51.534;6.722;2023-08-17T00:06:46;2.65;;;1.92;;
15331;SDS011;7766;51.534;6.722;2023-08-17T00:07:47;3.80;;;2.05;;
15331;SDS011;7766;51.534;6.722;2023-08-17T00:08:48;4.65;;;2.03;;
15331;SDS011;7766;51.534;6.722;2023-08-17T00:09:49;5.67;;;2.37;;
15331;SDS011;7766;51.534;6.722;2023-08-17T00:10:50;2.83;;;1.73;;
15331;SDS011;7766;51.534;6.722;2023-08-17T00:11:51;4.77;;;2.37;;
15331;SDS011;7766;51.534;6.722;2023-08-17T00:12:52;3.50;;;2.10;;
15331;SDS011;7766;51.534;6.722;2023-08-17T00:13:53;5.57;;;2.30;;
15331;SDS011;7766;51.534;6.722;2023-08-17T00:14:54;4.83;;;2.20;;
15331;SDS011;7766;51.534;6.722;2023-08-17T00:15:56;3.30;;;2.67;;
15331;SDS011;7766;51.534;6.722;2023-08-17T00:16:57;4.00;;;2.40;;
15331;SDS011;7766;51.534;6.722;2023-08-17T00:17:58;4.63;;;1.93;;
15331;SDS011;7766;51.534;6.722;2023-08-17T00:18:59;5.93;;;2.50;;
15331;SDS011;7766;51.534;6.722;2023-08-17T00:20:00;3.33;;;2.10;;
15331;SDS011;7766;51.534;6.722;2023-08-17T00:21:01;7.33;;;2.83;;
15331;SDS011;7766;51.534;6.722;2023-08-17T00:22:03;4.03;;;2.50;;
15331;SDS011;7766;51.534;6.722;2023-08-17T00:23:04;4.80;;;2.40;;
15331;SDS011;7766;51.534;6.722;2023-08-17T00:24:05;3.23;;;2.27;;
15331;SDS011;7766;51.534;6.722;2023-08-17T00:25:06;7.23;;;2.50;;
15331;SDS011;7766;51.534;6.722;2023-08-17T00:26:08;4.67;;;2.47;;
15331;SDS011;7766;51.534;6.722;2023-08-17T00:27:09;4.13;;;2.50;;
15331;SDS011;7766;51.534;6.722;2023-08-17T00:28:11;4.43;;;2.83;;
15331;SDS011;7766;51.534;6.722;2023-08-17T00:29:12;6.53;;;3.40;;
15331;SDS011;7766;51.534;6.722;2023-08-17T00:30:14;12.97;;;8.10;;
15331;SDS011;7766;51.534;6.722;2023-08-17T00:31:16;9.40;;;5.80;;
15331;SDS011;7766;51.534;6.722;2023-08-17T00:32:17;6.90;;;4.77;;
15331;SDS011;7766;51.534;6.722;2023-08-17T00:33:18;9.93;;;6.53;;
15331;SDS011;7766;51.534;6.722;2023-08-17T00:34:19;10.33;;;5.77;;
15331;SDS011;7766;51.534;6.722;2023-08-17T00:35:20;5.50;;;3.33;;
15331;SDS011;7766;51.534;6.722;2023-08-17T00:36:21;4.73;;;3.17;;
15331;SDS011;7766;51.534;6.722;2023-08-17T00:37:22;2.67;;;2.27;;
15331;SDS011;7766;51.534;6.722;2023-08-17T00:38:23;3.50;;;2.37;;
15331;SDS011;7766;51.534;6.722;2023-08-17T00:39:24;4.67;;;2.23;;
15331;SDS011;7766;51.534;6.722;2023-08-17T00:40:25;5.13;;;2.67;;
15331;SDS011;7766;51.534;6.722;2023-08-17T00:41:26;5.60;;;2.30;;
15331;SDS011;7766;51.534;6.722;2023-08-17T00:42:28;4.40;;;2.40;;
15331;SDS011;7766;51.534;6.722;2023-08-17T00:43:29;6.83;;;2.47;;
15331;SDS011;7766;51.534;6.722;2023-08-17T00:44:30;6.47;;;2.53;;
15331;SDS011;7766;51.534;6.722;2023-08-17T00:45:31;5.60;;;2.57;;
15331;SDS011;7766;51.534;6.722;2023-08-17T00:46:32;4.60;;;2.73;;
15331;SDS011;7766;51.534;6.722;2023-08-17T00:47:34;4.27;;;2.33;;
15331;SDS011;7766;51.534;6.722;2023-08-17T00:48:35;4.90;;;2.57;;
15331;SDS011;7766;51.534;6.722;2023-08-17T00:49:37;5.43;;;2.83;;
15331;SDS011;7766;51.534;6.722;2023-08-17T00:50:38;5.27;;;2.60;;
15331;SDS011;7766;51.534;6.722;2023-08-17T00:51:40;3.77;;;2.30;;
15331;SDS011;7766;51.534;6.722;2023-08-17T00:52:42;5.73;;;2.30;;
15331;SDS011;7766;51.534;6.722;2023-08-17T00:53:43;4.90;;;2.53;;
15331;SDS011;7766;51.534;6.722;2023-08-17T00:54:44;6.63;;;2.47;;
15331;SDS011;7766;51.534;6.722;2023-08-17T00:55:45;8.67;;;2.60;;
15331;SDS011;7766;51.534;6.722;2023-08-17T00:56:47;4.43;;;2.50;;
15331;SDS011;7766;51.534;6.722;2023-08-17T00:57:48;4.67;;;2.50;;
15331;SDS011;7766;51.534;6.722;2023-08-17T00:58:49;7.43;;;2.50;;
15331;SDS011;7766;51.534;6.722;2023-08-17T00:59:51;2.57;;;2.10;;
15331;SDS011;7766;51.534;6.722;2023-08-17T01:00:52;4.50;;;2.63;;
15331;SDS011;7766;51.534;6.722;2023-08-17T01:01:53;5.87;;;2.50;;
15331;SDS011;7766;51.534;6.722;2023-08-17T01:02:54;3.17;;;2.60;;
15331;SDS011;7766;51.534;6.722;2023-08-17T01:03:55;4.13;;;2.70;;
15331;SDS011;7766;51.534;6.722;2023-08-17T01:04:56;7.17;;;2.97;;
15331;SDS011;7766;51.534;6.722;2023-08-17T01:05:58;3.10;;;2.53;;
15331;SDS011;7766;51.534;6.722;2023-08-17T01:06:59;3.63;;;2.60;;
15331;SDS011;7766;51.534;6.722;2023-08-17T01:08:00;3.47;;;2.93;;
15331;SDS011;7766;51.534;6.722;2023-08-17T01:09:01;3.70;;;2.70;;
15331;SDS011;7766;51.534;6.722;2023-08-17T01:10:02;4.10;;;3.17;;
15331;SDS011;7766;51.534;6.722;2023-08-17T01:11:10;4.37;;;2.80;;
15331;SDS011;7766;51.534;6.722;2023-08-17T01:12:24;3.97;;;3.10;;
15331;SDS011;7766;51.534;6.722;2023-08-17T01:13:35;6.50;;;2.70;;
15331;SDS011;7766;51.534;6.722;2023-08-17T01:14:52;4.40;;;3.00;;
15331;SDS011;7766;51.534;6.722;2023-08-17T01:16:19;5.17;;;3.07;;
15331;SDS011;7766;51.534;6.722;2023-08-17T01:17:30;5.00;;;2.50;;
15331;SDS011;7766;51.534;6.722;2023-08-17T01:18:52;4.50;;;2.80;;
15331;SDS011;7766;51.534;6.722;2023-08-17T01:19:54;3.57;;;2.83;;
15331;SDS011;7766;51.534;6.722;2023-08-17T01:20:57;4.83;;;2.90;;
15331;SDS011;7766;51.534;6.722;2023-08-17T01:22:03;5.53;;;3.00;;
15331;SDS011;7766;51.534;6.722;2023-08-17T01:23:08;4.63;;;2.67;;
15331;SDS011;7766;51.534;6.722;2023-08-17T01:24:10;4.23;;;2.70;;
15331;SDS011;7766;51.534;6.722;2023-08-17T01:25:12;3.50;;;2.63;;
15331;SDS011;7766;51.534;6.722;2023-08-17T01:26:13;3.50;;;2.53;;
15331;SDS011;7766;51.534;6.722;2023-08-17T01:27:15;4.20;;;2.43;;
15331;SDS011;7766;51.534;6.722;2023-08-17T01:28:16;3.13;;;2.40;;
15331;SDS011;7766;51.534;6.722;2023-08-17T01:29:17;3.90;;;2.50;;
15331;SDS011;7766;51.534;6.722;2023-08-17T01:30:18;4.07;;;2.83;;
15331;SDS011;7766;51.534;6.722;2023-08-17T01:32:03;4.00;;;2.80;;
15331;SDS011;7766;51.534;6.722;2023-08-17T01:33:06;5.77;;;2.90;;
15331;SDS011;7766;51.534;6.722;2023-08-17T01:34:09;3.90;;;2.40;;
15331;SDS011;7766;51.534;6.722;2023-08-17T01:35:21;4.37;;;2.63;;
15331;SDS011;7766;51.534;6.722;2023-08-17T01:36:33;5.80;;;2.70;;
15331;SDS011;7766;51.534;6.722;2023-08-17T01:37:40;5.17;;;2.80;;
15331;SDS011;7766;51.534;6.722;2023-08-17T01:38:42;5.37;;;2.60;;
15331;SDS011;7766;51.534;6.722;2023-08-17T01:39:46;4.70;;;2.90;;
15331;SDS011;7766;51.534;6.722;2023-08-17T01:40:52;3.53;;;2.50;;
15331;SDS011;7766;51.534;6.722;2023-08-17T01:41:54;4.33;;;2.30;;
15331;SDS011;7766;51.534;6.722;2023-08-17T01:42:58;5.87;;;3.00;;
15331;SDS011;7766;51.534;6.722;2023-08-17T01:44:01;5.07;;;2.80;;
15331;SDS011;7766;51.534;6.722;2023-08-17T01:45:03;4.23;;;2.70;;
15331;SDS011;7766;51.534;6.722;2023-08-17T01:46:04;5.40;;;3.00;;
15331;SDS011;7766;51.534;6.722;2023-08-17T01:47:06;3.03;;;2.60;;
15331;SDS011;7766;51.534;6.722;2023-08-17T01:48:07;4.37;;;2.93;;
15331;SDS011;7766;51.534;6.722;2023-08-17T01:49:08;6.40;;;2.93;;
15331;SDS011;7766;51.534;6.722;2023-08-17T01:50:09;5.17;;;2.87;;
15331;SDS011;7766;51.534;6.722;2023-08-17T01:51:10;3.30;;;2.67;;
15331;SDS011;7766;51.534;6.722;2023-08-17T01:52:16;3.53;;;2.70;;
15331;SDS011;7766;51.534;6.722;2023-08-17T01:53:17;4.70;;;2.67;;
15331;SDS011;7766;51.534;6.722;2023-08-17T01:54:18;4.47;;;2.73;;
15331;SDS011;7766;51.534;6.722;2023-08-17T01:55:20;5.53;;;2.23;;
15331;SDS011;7766;51.534;6.722;2023-08-17T01:56:22;4.10;;;3.20;;
15331;SDS011;7766;51.534;6.722;2023-08-17T01:57:23;4.00;;;2.67;;
15331;SDS011;7766;51.534;6.722;2023-08-17T01:58:24;4.37;;;3.13;;
15331;SDS011;7766;51.534;6.722;2023-08-17T01:59:25;4.80;;;2.93;;
15331;SDS011;7766;51.534;6.722;2023-08-17T02:00:26;4.27;;;2.90;;
15331;SDS011;7766;51.534;6.722;2023-08-17T02:01:28;3.97;;;2.47;;
15331;SDS011;7766;51.534;6.722;2023-08-17T02:02:29;6.83;;;2.70;;
15331;SDS011;7766;51.534;6.722;2023-08-17T02:03:30;6.97;;;3.20;;
15331;SDS011;7766;51.534;6.722;2023-08-17T02:04:31;2.83;;;2.50;;
15331;SDS011;7766;51.534;6.722;2023-08-17T02:05:32;5.57;;;2.80;;
15331;SDS011;7766;51.534;6.722;2023-08-17T02:06:33;3.07;;;2.70;;
15331;SDS011;7766;51.534;6.722;2023-08-17T02:07:34;3.20;;;2.73;;
15331;SDS011;7766;51.534;6.722;2023-08-17T02:08:37;4.47;;;2.63;;
15331;SDS011;7766;51.534;6.722;2023-08-17T02:09:39;5.57;;;3.10;;
15331;SDS011;7766;51.534;6.722;2023-08-17T02:10:40;3.83;;;2.60;;
15331;SDS011;7766;51.534;6.722;2023-08-17T02:11:41;4.87;;;2.90;;
15331;SDS011;7766;51.534;6.722;2023-08-17T02:12:42;3.40;;;2.50;;
15331;SDS011;7766;51.534;6.722;2023-08-17T02:13:43;4.47;;;2.83;;
15331;SDS011;7766;51.534;6.722;2023-08-17T02:14:44;8.03;;;2.80;;
15331;SDS011;7766;51.534;6.722;2023-08-17T02:15:46;6.50;;;3.17;;
15331;SDS011;7766;51.534;6.722;2023-08-17T02:16:47;7.53;;;3.13;;
15331;SDS011;7766;51.534;6.722;2023-08-17T02:17:48;4.90;;;3.07;;
15331;SDS011;7766;51.534;6.722;2023-08-17T02:18:50;3.53;;;2.67;;
15331;SDS011;7766;51.534;6.722;2023-08-17T02:19:50;3.97;;;2.80;;
15331;SDS011;7766;51.534;6.722;2023-08-17T02:20:51;5.13;;;2.50;;
15331;SDS011;7766;51.534;6.722;2023-08-17T02:21:52;3.60;;;2.70;;
15331;SDS011;7766;51.534;6.722;2023-08-17T02:22:53;3.20;;;2.90;;
15331;SDS011;7766;51.534;6.722;2023-08-17T02:23:54;6.90;;;2.63;;
15331;SDS011;7766;51.534;6.722;2023-08-17T02:24:55;4.73;;;3.20;;
15331;SDS011;7766;51.534;6.722;2023-08-17T02:25:56;5.93;;;3.70;;
15331;SDS011;7766;51.534;6.722;2023-08-17T02:26:57;7.43;;;3.50;;
15331;SDS011;7766;51.534;6.722;2023-08-17T02:27:58;6.30;;;3.30;;
15331;SDS011;7766;51.534;6.722;2023-08-17T02:29:00;6.20;;;3.57;;
15331;SDS011;7766;51.534;6.722;2023-08-17T02:30:01;5.27;;;3.73;;
15331;SDS011;7766;51.534;6.722;2023-08-17T02:31:03;4.33;;;3.73;;
15331;SDS011;7766;51.534;6.722;2023-08-17T02:32:06;7.27;;;4.63;;
15331;SDS011;7766;51.534;6.722;2023-08-17T02:33:07;7.77;;;4.50;;
15331;SDS011;7766;51.534;6.722;2023-08-17T02:34:08;7.07;;;5.53;;
15331;SDS011;7766;51.534;6.722;2023-08-17T02:35:10;9.73;;;5.10;;
15331;SDS011;7766;51.534;6.722;2023-08-17T02:36:11;7.70;;;6.03;;
15331;SDS011;7766;51.534;6.722;2023-08-17T02:37:12;7.30;;;6.60;;
15331;SDS011;7766;51.534;6.722;2023-08-17T02:38:13;9.73;;;6.93;;
15331;SDS011;7766;51.534;6.722;2023-08-17T02:39:14;8.47;;;6.30;;
15331;SDS011;7766;51.534;6.722;2023-08-17T02:40:15;8.77;;;6.47;;
15331;SDS011;7766;51.534;6.722;2023-08-17T02:41:16;9.60;;;6.20;;
15331;SDS011;7766;51.534;6.722;2023-08-17T02:42:17;7.87;;;5.80;;
15331;SDS011;7766;51.534;6.722;2023-08-17T02:43:18;5.83;;;5.23;;
15331;SDS011;7766;51.534;6.722;2023-08-17T02:44:20;5.97;;;5.00;;
15331;SDS011;7766;51.534;6.722;2023-08-17T02:45:21;8.23;;;5.00;;
15331;SDS011;7766;51.534;6.722;2023-08-17T02:46:22;5.60;;;4.90;;
15331;SDS011;7766;51.534;6.722;2023-08-17T02:47:23;5.93;;;5.10;;
15331;SDS011;7766;51.534;6.722;2023-08-17T02:48:24;6.97;;;4.87;;
15331;SDS011;7766;51.534;6.722;2023-08-17T02:49:25;7.43;;;5.07;;
15331;SDS011;7766;51.534;6.722;2023-08-17T02:50:26;6.60;;;4.23;;
15331;SDS011;7766;51.534;6.722;2023-08-17T02:51:27;6.60;;;4.27;;
15331;SDS011;7766;51.534;6.722;2023-08-17T02:52:28;7.03;;;4.03;;
15331;SDS011;7766;51.534;6.722;2023-08-17T02:53:29;6.70;;;4.20;;
15331;SDS011;7766;51.534;6.722;2023-08-17T02:54:30;5.93;;;3.63;;
15331;SDS011;7766;51.534;6.722;2023-08-17T02:55:31;6.00;;;3.93;;
15331;SDS011;7766;51.534;6.722;2023-08-17T02:56:32;6.33;;;4.27;;
15331;SDS011;7766;51.534;6.722;2023-08-17T02:57:33;6.10;;;3.90;;
15331;SDS011;7766;51.534;6.722;2023-08-17T02:58:34;5.13;;;3.70;;
15331;SDS011;7766;51.534;6.722;2023-08-17T02:59:36;6.30;;;4.00;;
15331;SDS011;7766;51.534;6.722;2023-08-17T03:00:37;8.00;;;4.67;;
15331;SDS011;7766;51.534;6.722;2023-08-17T03:01:38;7.50;;;4.27;;
15331;SDS011;7766;51.534;6.722;2023-08-17T03:02:39;6.30;;;4.10;;
15331;SDS011;7766;51.534;6.722;2023-08-17T03:03:40;4.90;;;4.07;;
15331;SDS011;7766;51.534;6.722;2023-08-17T03:04:41;8.30;;;4.30;;
15331;SDS011;7766;51.534;6.722;2023-08-17T03:05:42;7.63;;;4.07;;
15331;SDS011;7766;51.534;6.722;2023-08-17T03:06:43;7.47;;;4.73;;
15331;SDS011;7766;51.534;6.722;2023-08-17T03:07:44;5.33;;;3.83;;
15331;SDS011;7766;51.534;6.722;2023-08-17T03:08:45;6.30;;;4.73;;
15331;SDS011;7766;51.534;6.722;2023-08-17T03:09:46;5.97;;;4.73;;
15331;SDS011;7766;51.534;6.722;2023-08-17T03:10:47;5.53;;;4.60;;
15331;SDS011;7766;51.534;6.722;2023-08-17T03:11:48;10.33;;;5.00;;
15331;SDS011;7766;51.534;6.722;2023-08-17T03:12:49;7.03;;;5.20;;
15331;SDS011;7766;51.534;6.722;2023-08-17T03:13:51;6.97;;;4.87;;
15331;SDS011;7766;51.534;6.722;2023-08-17T03:14:54;6.20;;;5.60;;
15331;SDS011;7766;51.534;6.722;2023-08-17T03:15:55;8.83;;;6.00;;
15331;SDS011;7766;51.534;6.722;2023-08-17T03:16:56;7.10;;;5.10;;
15331;SDS011;7766;51.534;6.722;2023-08-17T03:17:56;11.40;;;5.47;;
15331;SDS011;7766;51.534;6.722;2023-08-17T03:18:57;7.93;;;5.00;;
15331;SDS011;7766;51.534;6.722;2023-08-17T03:19:58;5.73;;;4.80;;
15331;SDS011;7766;51.534;6.722;2023-08-17T03:21:00;8.10;;;4.80;;
15331;SDS011;7766;51.534;6.722;2023-08-17T03:22:01;5.80;;;4.80;;
15331;SDS011;7766;51.534;6.722;2023-08-17T03:23:02;7.40;;;4.53;;
15331;SDS011;7766;51.534;6.722;2023-08-17T03:24:06;4.53;;;4.13;;
15331;SDS011;7766;51.534;6.722;2023-08-17T03:25:07;6.47;;;3.90;;
15331;SDS011;7766;51.534;6.722;2023-08-17T03:26:08;5.60;;;3.90;;
15331;SDS011;7766;51.534;6.722;2023-08-17T03:27:09;6.20;;;4.87;;
15331;SDS011;7766;51.534;6.722;2023-08-17T03:28:11;6.17;;;5.03;;
15331;SDS011;7766;51.534;6.722;2023-08-17T03:29:12;9.50;;;5.37;;
15331;SDS011;7766;51.534;6.722;2023-08-17T03:30:13;8.40;;;4.50;;
15331;SDS011;7766;51.534;6.722;2023-08-17T03:31:14;8.37;;;4.03;;
15331;SDS011;7766;51.534;6.722;2023-08-17T03:32:14;4.13;;;3.40;;
15331;SDS011;7766;51.534;6.722;2023-08-17T03:33:15;10.60;;;3.93;;
15331;SDS011;7766;51.534;6.722;2023-08-17T03:34:16;7.40;;;3.67;;
15331;SDS011;7766;51.534;6.722;2023-08-17T03:35:17;6.47;;;3.67;;
15331;SDS011;7766;51.534;6.722;2023-08-17T03:36:18;5.57;;;3.90;;
15331;SDS011;7766;51.534;6.722;2023-08-17T03:37:19;4.27;;;3.40;;
15331;SDS011;7766;51.534;6.722;2023-08-17T03:38:21;5.27;;;3.33;;
15331;SDS011;7766;51.534;6.722;2023-08-17T03:39:22;3.97;;;3.03;;
15331;SDS011;7766;51.534;6.722;2023-08-17T03:40:23;5.03;;;3.20;;
15331;SDS011;7766;51.534;6.722;2023-08-17T03:41:24;9.13;;;4.23;;
15331;SDS011;7766;51.534;6.722;2023-08-17T03:42:25;6.30;;;3.87;;
15331;SDS011;7766;51.534;6.722;2023-08-17T03:43:26;7.83;;;3.90;;
15331;SDS011;7766;51.534;6.722;2023-08-17T03:44:27;6.40;;;3.50;;
15331;SDS011;7766;51.534;6.722;2023-08-17T03:45:28;6.17;;;3.37;;
15331;SDS011;7766;51.534;6.722;2023-08-17T03:46:30;3.10;;;2.77;;
15331;SDS011;7766;51.534;6.722;2023-08-17T03:47:31;4.50;;;3.10;;
15331;SDS011;7766;51.534;6.722;2023-08-17T03:48:32;6.60;;;3.80;;
15331;SDS011;7766;51.534;6.722;2023-08-17T03:49:33;8.07;;;3.43;;
15331;SDS011;7766;51.534;6.722;2023-08-17T03:50:34;4.13;;;2.93;;
15331;SDS011;7766;51.534;6.722;2023-08-17T03:51:35;5.13;;;3.27;;
15331;SDS011;7766;51.534;6.722;2023-08-17T03:52:36;5.13;;;3.37;;
15331;SDS011;7766;51.534;6.722;2023-08-17T03:53:37;7.20;;;3.43;;
15331;SDS011;7766;51.534;6.722;2023-08-17T03:54:38;4.90;;;3.30;;
15331;SDS011;7766;51.534;6.722;2023-08-17T03:55:42;5.70;;;3.40;;
15331;SDS011;7766;51.534;6.722;2023-08-17T03:56:47;6.37;;;3.43;;
15331;SDS011;7766;51.534;6.722;2023-08-17T03:57:48;4.47;;;3.47;;
15331;SDS011;7766;51.534;6.722;2023-08-17T03:58:49;6.67;;;3.80;;
15331;SDS011;7766;51.534;6.722;2023-08-17T03:59:52;5.90;;;3.60;;
15331;SDS011;7766;51.534;6.722;2023-08-17T04:00:53;4.43;;;3.50;;
15331;SDS011;7766;51.534;6.722;2023-08-17T04:01:54;5.33;;;3.40;;
15331;SDS011;7766;51.534;6.722;2023-08-17T04:02:55;8.93;;;3.37;;
15331;SDS011;7766;51.534;6.722;2023-08-17T04:03:56;8.00;;;4.13;;
15331;SDS011;7766;51.534;6.722;2023-08-17T04:04:57;5.80;;;3.50;;
15331;SDS011;7766;51.534;6.722;2023-08-17T04:05:58;6.33;;;3.67;;
15331;SDS011;7766;51.534;6.722;2023-08-17T04:07:06;5.37;;;3.30;;
15331;SDS011;7766;51.534;6.722;2023-08-17T04:08:07;5.70;;;3.60;;
15331;SDS011;7766;51.534;6.722;2023-08-17T04:09:08;5.80;;;3.50;;
15331;SDS011;7766;51.534;6.722;2023-08-17T04:10:09;5.00;;;3.43;;
15331;SDS011;7766;51.534;6.722;2023-08-17T04:11:10;7.60;;;3.30;;
15331;SDS011;7766;51.534;6.722;2023-08-17T04:12:11;4.63;;;3.43;;
15331;SDS011;7766;51.534;6.722;2023-08-17T04:13:12;5.90;;;3.70;;
15331;SDS011;7766;51.534;6.722;2023-08-17T04:14:13;4.77;;;3.80;;
15331;SDS011;7766;51.534;6.722;2023-08-17T04:15:14;5.23;;;3.83;;
15331;SDS011;7766;51.534;6.722;2023-08-17T04:16:15;6.30;;;3.63;;
15331;SDS011;7766;51.534;6.722;2023-08-17T04:17:16;5.20;;;3.27;;
15331;SDS011;7766;51.534;6.722;2023-08-17T04:18:17;5.50;;;3.53;;
15331;SDS011;7766;51.534;6.722;2023-08-17T04:19:18;5.23;;;3.13;;
15331;SDS011;7766;51.534;6.722;2023-08-17T04:20:19;7.87;;;3.50;;
15331;SDS011;7766;51.534;6.722;2023-08-17T04:21:20;3.63;;;3.17;;
15331;SDS011;7766;51.534;6.722;2023-08-17T04:22:21;4.57;;;3.67;;
15331;SDS011;7766;51.534;6.722;2023-08-17T04:23:22;3.93;;;3.53;;
15331;SDS011;7766;51.534;6.722;2023-08-17T04:24:23;6.80;;;3.60;;
15331;SDS011;7766;51.534;6.722;2023-08-17T04:25:24;5.27;;;3.47;;
15331;SDS011;7766;51.534;6.722;2023-08-17T04:26:25;5.60;;;3.27;;
15331;SDS011;7766;51.534;6.722;2023-08-17T04:27:26;6.50;;;3.83;;
15331;SDS011;7766;51.534;6.722;2023-08-17T04:28:27;6.47;;;3.87;;
15331;SDS011;7766;51.534;6.722;2023-08-17T04:29:29;5.80;;;3.80;;
15331;SDS011;7766;51.534;6.722;2023-08-17T04:30:31;6.80;;;3.40;;
15331;SDS011;7766;51.534;6.722;2023-08-17T04:31:32;7.53;;;3.60;;
15331;SDS011;7766;51.534;6.722;2023-08-17T04:32:33;6.40;;;4.17;;
15331;SDS011;7766;51.534;6.722;2023-08-17T04:33:34;5.70;;;3.70;;
15331;SDS011;7766;51.534;6.722;2023-08-17T04:34:35;8.80;;;3.60;;
15331;SDS011;7766;51.534;6.722;2023-08-17T04:35:36;5.57;;;3.90;;
15331;SDS011;7766;51.534;6.722;2023-08-17T04:36:37;5.20;;;3.47;;
15331;SDS011;7766;51.534;6.722;2023-08-17T04:37:38;6.50;;;3.73;;
15331;SDS011;7766;51.534;6.722;2023-08-17T04:38:39;6.70;;;4.10;;
15331;SDS011;7766;51.534;6.722;2023-08-17T04:39:40;5.23;;;3.90;;
15331;SDS011;7766;51.534;6.722;2023-08-17T04:40:43;6.53;;;4.00;;
15331;SDS011;7766;51.534;6.722;2023-08-17T04:41:44;7.33;;;3.57;;
15331;SDS011;7766;51.534;6.722;2023-08-17T04:42:44;7.77;;;3.80;;
15331;SDS011;7766;51.534;6.722;2023-08-17T04:43:45;6.20;;;4.17;;
15331;SDS011;7766;51.534;6.722;2023-08-17T04:44:47;8.87;;;4.70;;
15331;SDS011;7766;51.534;6.722;2023-08-17T04:45:48;6.97;;;4.60;;
15331;SDS011;7766;51.534;6.722;2023-08-17T04:46:49;6.93;;;4.33;;
15331;SDS011;7766;51.534;6.722;2023-08-17T04:47:50;5.87;;;4.67;;
15331;SDS011;7766;51.534;6.722;2023-08-17T04:48:51;6.70;;;5.47;;
15331;SDS011;7766;51.534;6.722;2023-08-17T04:49:52;6.47;;;5.03;;
15331;SDS011;7766;51.534;6.722;2023-08-17T04:50:53;12.17;;;5.77;;
15331;SDS011;7766;51.534;6.722;2023-08-17T04:51:54;8.20;;;6.20;;
15331;SDS011;7766;51.534;6.722;2023-08-17T04:52:56;10.37;;;6.57;;
15331;SDS011;7766;51.534;6.722;2023-08-17T04:53:57;7.53;;;5.80;;
15331;SDS011;7766;51.534;6.722;2023-08-17T04:54:58;6.93;;;6.20;;
15331;SDS011;7766;51.534;6.722;2023-08-17T04:55:59;8.30;;;7.20;;
15331;SDS011;7766;51.534;6.722;2023-08-17T04:56:59;9.83;;;6.80;;
15331;SDS011;7766;51.534;6.722;2023-08-17T04:58:00;9.40;;;8.07;;
15331;SDS011;7766;51.534;6.722;2023-08-17T04:59:01;11.37;;;7.63;;
15331;SDS011;7766;51.534;6.722;2023-08-17T05:00:03;7.00;;;6.30;;
15331;SDS011;7766;51.534;6.722;2023-08-17T05:01:08;9.53;;;6.23;;
15331;SDS011;7766;51.534;6.722;2023-08-17T05:02:10;10.80;;;6.20;;
15331;SDS011;7766;51.534;6.722;2023-08-17T05:03:11;9.27;;;7.07;;
15331;SDS011;7766;51.534;6.722;2023-08-17T05:04:11;9.37;;;6.70;;
15331;SDS011;7766;51.534;6.722;2023-08-17T05:05:12;8.57;;;7.47;;
15331;SDS011;7766;51.534;6.722;2023-08-17T05:06:13;10.73;;;6.70;;
15331;SDS011;7766;51.534;6.722;2023-08-17T05:07:14;10.70;;;7.53;;
15331;SDS011;7766;51.534;6.722;2023-08-17T05:08:15;12.17;;;7.17;;
15331;SDS011;7766;51.534;6.722;2023-08-17T05:09:17;6.70;;;6.00;;
15331;SDS011;7766;51.534;6.722;2023-08-17T05:10:18;8.60;;;6.70;;
15331;SDS011;7766;51.534;6.722;2023-08-17T05:11:19;13.07;;;7.00;;
15331;SDS011;7766;51.534;6.722;2023-08-17T05:12:20;11.20;;;6.80;;
15331;SDS011;7766;51.534;6.722;2023-08-17T05:13:21;9.83;;;6.13;;
15331;SDS011;7766;51.534;6.722;2023-08-17T05:14:22;6.83;;;5.63;;
15331;SDS011;7766;51.534;6.722;2023-08-17T05:15:23;9.87;;;5.93;;
15331;SDS011;7766;51.534;6.722;2023-08-17T05:16:24;6.73;;;5.60;;
15331;SDS011;7766;51.534;6.722;2023-08-17T05:17:25;8.20;;;5.27;;
15331;SDS011;7766;51.534;6.722;2023-08-17T05:18:26;11.87;;;5.60;;
15331;SDS011;7766;51.534;6.722;2023-08-17T05:19:27;6.47;;;5.53;;
15331;SDS011;7766;51.534;6.722;2023-08-17T05:20:28;7.47;;;4.80;;
15331;SDS011;7766;51.534;6.722;2023-08-17T05:21:29;8.47;;;6.10;;
15331;SDS011;7766;51.534;6.722;2023-08-17T05:22:30;10.73;;;6.10;;
15331;SDS011;7766;51.534;6.722;2023-08-17T05:23:31;8.77;;;5.90;;
15331;SDS011;7766;51.534;6.722;2023-08-17T05:24:33;14.37;;;6.60;;
15331;SDS011;7766;51.534;6.722;2023-08-17T05:25:34;10.47;;;6.30;;
15331;SDS011;7766;51.534;6.722;2023-08-17T05:26:35;6.93;;;5.73;;
15331;SDS011;7766;51.534;6.722;2023-08-17T05:27:36;7.97;;;6.07;;
15331;SDS011;7766;51.534;6.722;2023-08-17T05:28:37;10.53;;;5.37;;
15331;SDS011;7766;51.534;6.722;2023-08-17T05:29:38;6.87;;;5.30;;
15331;SDS011;7766;51.534;6.722;2023-08-17T05:30:40;6.10;;;5.10;;
15331;SDS011;7766;51.534;6.722;2023-08-17T05:31:41;10.20;;;6.03;;
15331;SDS011;7766;51.534;6.722;2023-08-17T05:32:42;8.63;;;5.37;;
15331;SDS011;7766;51.534;6.722;2023-08-17T05:33:43;7.40;;;4.87;;
15331;SDS011;7766;51.534;6.722;2023-08-17T05:34:44;7.53;;;5.27;;
15331;SDS011;7766;51.534;6.722;2023-08-17T05:35:46;7.90;;;5.47;;
15331;SDS011;7766;51.534;6.722;2023-08-17T05:36:52;8.77;;;6.10;;
15331;SDS011;7766;51.534;6.722;2023-08-17T05:37:53;6.73;;;6.07;;
15331;SDS011;7766;51.534;6.722;2023-08-17T05:38:54;9.97;;;6.23;;
15331;SDS011;7766;51.534;6.722;2023-08-17T05:39:55;8.57;;;5.13;;
15331;SDS011;7766;51.534;6.722;2023-08-17T05:40:56;7.33;;;5.20;;
15331;SDS011;7766;51.534;6.722;2023-08-17T05:41:58;5.67;;;4.97;;
15331;SDS011;7766;51.534;6.722;2023-08-17T05:42:59;6.67;;;4.60;;
15331;SDS011;7766;51.534;6.722;2023-08-17T05:44:00;9.40;;;5.57;;
15331;SDS011;7766;51.534;6.722;2023-08-17T05:45:02;6.87;;;6.07;;
15331;SDS011;7766;51.534;6.722;2023-08-17T05:46:03;10.67;;;5.60;;
15331;SDS011;7766;51.534;6.722;2023-08-17T05:47:04;6.67;;;5.60;;
15331;SDS011;7766;51.534;6.722;2023-08-17T05:48:05;9.03;;;6.17;;
15331;SDS011;7766;51.534;6.722;2023-08-17T05:49:06;5.83;;;4.87;;
15331;SDS011;7766;51.534;6.722;2023-08-17T05:50:07;8.03;;;4.73;;
15331;SDS011;7766;51.534;6.722;2023-08-17T05:51:08;9.83;;;4.80;;
15331;SDS011;7766;51.534;6.722;2023-08-17T05:52:09;9.90;;;5.33;;
15331;SDS011;7766;51.534;6.722;2023-08-17T05:53:12;9.27;;;4.60;;
15331;SDS011;7766;51.534;6.722;2023-08-17T05:54:13;5.47;;;4.23;;
15331;SDS011;7766;51.534;6.722;2023-08-17T05:55:14;7.33;;;4.63;;
15331;SDS011;7766;51.534;6.722;2023-08-17T05:56:15;9.77;;;4.63;;
15331;SDS011;7766;51.534;6.722;2023-08-17T05:57:16;5.67;;;4.23;;
15331;SDS011;7766;51.534;6.722;2023-08-17T05:58:17;6.90;;;4.63;;
15331;SDS011;7766;51.534;6.722;2023-08-17T05:59:18;9.23;;;4.43;;
15331;SDS011;7766;51.534;6.722;2023-08-17T06:00:19;12.03;;;4.70;;
15331;SDS011;7766;51.534;6.722;2023-08-17T06:01:21;7.23;;;4.50;;
15331;SDS011;7766;51.534;6.722;2023-08-17T06:02:22;6.33;;;3.57;;
15331;SDS011;7766;51.534;6.722;2023-08-17T06:03:23;5.30;;;3.83;;
15331;SDS011;7766;51.534;6.722;2023-08-17T06:04:24;8.20;;;3.87;;
15331;SDS011;7766;51.534;6.722;2023-08-17T06:05:25;7.50;;;3.77;;
15331;SDS011;7766;51.534;6.722;2023-08-17T06:06:29;7.60;;;3.70;;
15331;SDS011;7766;51.534;6.722;2023-08-17T06:07:30;8.73;;;3.33;;
15331;SDS011;7766;51.534;6.722;2023-08-17T06:08:31;5.47;;;4.03;;
15331;SDS011;7766;51.534;6.722;2023-08-17T06:09:32;7.30;;;3.53;;
15331;SDS011;7766;51.534;6.722;2023-08-17T06:10:33;5.90;;;3.20;;
15331;SDS011;7766;51.534;6.722;2023-08-17T06:11:34;7.77;;;4.13;;
15331;SDS011;7766;51.534;6.722;2023-08-17T06:12:35;4.83;;;3.30;;
15331;SDS011;7766;51.534;6.722;2023-08-17T06:13:36;6.03;;;3.77;;
15331;SDS011;7766;51.534;6.722;2023-08-17T06:14:37;6.10;;;4.00;;
15331;SDS011;7766;51.534;6.722;2023-08-17T06:15:38;6.10;;;4.03;;
15331;SDS011;7766;51.534;6.722;2023-08-17T06:16:39;5.00;;;3.50;;
15331;SDS011;7766;51.534;6.722;2023-08-17T06:17:40;7.20;;;3.50;;